createdAt,value
2019-03-30T00:04:37.992Z,22
2019-03-30T00:09:40.560Z,20
2019-03-30T00:14:43.016Z,23
2019-03-30T00:19:45.718Z,22
2019-03-30T00:24:47.841Z,25
2019-03-30T00:29:50.406Z,23
2019-03-30T00:34:52.773Z,24
2019-03-30T00:39:55.298Z,25
2019-03-30T00:44:57.829Z,24
2019-03-30T00:50:00.891Z,24
2019-03-30T00:55:02.646Z,25
2019-03-30T01:00:05.165Z,22
2019-03-30T01:05:07.573Z,25
2019-03-30T01:10:10.067Z,26
2019-03-30T01:15:12.600Z,24
2019-03-30T01:20:15.308Z,26
2019-03-30T01:25:17.424Z,24
2019-03-30T01:30:23.161Z,21
2019-03-30T01:35:22.448Z,24
2019-03-30T01:40:24.853Z,24
2019-03-30T01:45:27.354Z,25
2019-03-30T01:50:30.018Z,26
2019-03-30T01:55:32.210Z,25
2019-03-30T02:00:34.673Z,24
2019-03-30T02:05:37.101Z,25
2019-03-30T02:10:39.602Z,24
2019-03-30T02:15:42.281Z,27
2019-03-30T02:20:44.646Z,26
2019-03-30T02:25:46.968Z,25
2019-03-30T02:30:49.462Z,25
2019-03-30T02:40:54.323Z,25
2019-03-30T02:45:56.919Z,23
2019-03-30T02:50:59.638Z,26
2019-03-30T02:56:01.730Z,24
2019-03-30T03:01:04.217Z,24
2019-03-30T03:06:06.637Z,24
2019-03-30T03:11:09.157Z,25
2019-03-30T03:16:11.687Z,24
2019-03-30T03:21:14.040Z,25
2019-03-30T03:26:16.485Z,24
2019-03-30T03:31:18.975Z,23
2019-03-30T03:36:21.423Z,22
2019-03-30T03:41:23.872Z,20
2019-03-30T03:46:26.355Z,23
2019-03-30T03:51:29.086Z,21
2019-03-30T03:56:31.238Z,22
2019-03-30T04:01:33.699Z,19
2019-03-30T04:06:36.182Z,22
2019-03-30T04:11:38.610Z,18
2019-03-30T04:16:41.191Z,21
2019-03-30T04:21:44.865Z,21
2019-03-30T04:26:46.001Z,21
2019-03-30T04:31:48.494Z,23
2019-03-30T04:36:50.926Z,19
2019-03-30T04:41:53.386Z,20
2019-03-30T04:46:55.920Z,19
2019-03-30T04:51:58.807Z,21
2019-03-30T04:57:00.765Z,20
2019-03-30T05:02:03.213Z,19
2019-03-30T05:07:05.805Z,19
2019-03-30T05:12:08.130Z,20
2019-03-30T05:17:10.694Z,17
2019-03-30T05:22:16.409Z,19
2019-03-30T05:27:15.545Z,18
2019-03-30T05:32:17.978Z,19
2019-03-30T05:37:20.526Z,17
2019-03-30T05:42:22.867Z,15
2019-03-30T05:47:25.509Z,15
2019-03-30T05:52:28.084Z,14
2019-03-30T05:57:30.314Z,14
2019-03-30T06:02:32.737Z,16
2019-03-30T06:07:35.211Z,13
2019-03-30T06:12:37.655Z,12
2019-03-30T06:17:40.222Z,14
2019-03-30T06:22:42.865Z,14
2019-03-30T06:27:45.021Z,15
2019-03-30T06:32:47.503Z,14
2019-03-30T06:37:49.971Z,14
2019-03-30T06:42:52.437Z,9
2019-03-30T06:47:54.896Z,7
2019-03-30T06:53:02.363Z,6
2019-03-30T07:03:02.285Z,8
2019-03-30T07:08:04.719Z,7
2019-03-30T07:13:07.170Z,7
2019-03-30T07:18:09.714Z,7
2019-03-30T07:23:12.787Z,7
2019-03-30T07:28:14.537Z,8
2019-03-30T07:33:17.018Z,6
2019-03-30T07:38:19.472Z,7
2019-03-30T07:43:21.943Z,7
2019-03-30T07:48:24.480Z,7
2019-03-30T07:53:27.183Z,7
2019-03-30T07:58:29.289Z,7
2019-03-30T08:03:31.824Z,7
2019-03-30T08:08:34.207Z,8
2019-03-30T08:13:36.670Z,9
2019-03-30T08:18:39.166Z,8
2019-03-30T08:23:41.623Z,8
2019-03-30T08:28:44.080Z,8
2019-03-30T08:33:46.527Z,9
2019-03-30T08:38:48.997Z,9
2019-03-30T08:43:51.464Z,8
2019-03-30T08:48:53.998Z,9
2019-03-30T08:53:56.428Z,9
2019-03-30T08:58:58.856Z,8
2019-03-30T09:04:01.275Z,9
2019-03-30T09:09:03.767Z,8
2019-03-30T09:14:06.358Z,9
2019-03-30T09:19:08.742Z,9
2019-03-30T09:24:11.231Z,7
2019-03-30T09:29:13.970Z,8
2019-03-30T09:34:16.045Z,9
2019-03-30T09:39:18.529Z,8
2019-03-30T09:44:20.947Z,8
2019-03-30T09:49:23.600Z,7
2019-03-30T09:54:25.881Z,8
2019-03-30T09:59:28.393Z,8
2019-03-30T10:04:30.812Z,8
2019-03-30T10:09:33.264Z,8
2019-03-30T10:14:35.810Z,7
2019-03-30T10:19:38.293Z,8
2019-03-30T10:24:40.660Z,8
2019-03-30T10:29:43.436Z,7
2019-03-30T10:34:45.573Z,8
2019-03-30T10:39:48.032Z,8
2019-03-30T10:44:50.568Z,7
2019-03-30T10:54:55.446Z,7
2019-03-30T10:59:58.230Z,7
2019-03-30T11:05:00.458Z,7
2019-03-30T11:10:02.876Z,7
2019-03-30T11:15:05.317Z,7
2019-03-30T11:20:07.766Z,7
2019-03-30T11:25:10.349Z,7
2019-03-30T11:30:17.680Z,7
2019-03-30T11:35:15.118Z,7
2019-03-30T11:40:17.591Z,6
2019-03-30T11:45:20.138Z,6
2019-03-30T11:50:22.512Z,7
2019-03-30T11:55:25.070Z,6
2019-03-30T12:00:27.425Z,7
2019-03-30T12:05:29.890Z,6
2019-03-30T12:10:32.355Z,7
2019-03-30T12:15:34.799Z,6
2019-03-30T12:20:37.266Z,7
2019-03-30T12:25:39.845Z,6
2019-03-30T12:30:42.553Z,7
2019-03-30T12:35:44.692Z,8
2019-03-30T12:40:47.147Z,9
2019-03-30T12:45:49.575Z,9
2019-03-30T12:50:52.145Z,9
2019-03-30T12:55:54.589Z,8
2019-03-30T13:00:56.999Z,8
2019-03-30T13:05:59.502Z,8
2019-03-30T13:11:01.927Z,8
2019-03-30T13:16:04.351Z,8
2019-03-30T13:21:06.885Z,8
2019-03-30T13:26:09.359Z,7
2019-03-30T13:31:11.744Z,8
2019-03-30T13:36:14.228Z,9
2019-03-30T13:41:16.644Z,8
2019-03-30T13:46:19.131Z,7
2019-03-30T13:51:21.647Z,7
2019-03-30T13:56:24.189Z,8
2019-03-30T14:01:26.795Z,7
2019-03-30T14:06:28.938Z,8
2019-03-30T14:11:31.398Z,8
2019-03-30T14:16:33.876Z,7
2019-03-30T14:21:36.339Z,8
2019-03-30T14:26:39.076Z,8
2019-03-30T14:31:41.517Z,6
2019-03-30T14:36:44.182Z,7
2019-03-30T14:41:46.162Z,7
2019-03-30T14:46:48.754Z,7
2019-03-30T14:51:51.094Z,8
2019-03-30T14:56:53.630Z,9
2019-03-30T15:01:56.315Z,8
2019-03-30T15:06:58.799Z,9
2019-03-30T15:12:01.000Z,9
2019-03-30T15:17:03.450Z,9
2019-03-30T15:22:05.843Z,9
2019-03-30T15:27:08.373Z,9
2019-03-30T15:32:11.031Z,9
2019-03-30T15:37:13.192Z,9
2019-03-30T15:42:15.663Z,9
2019-03-30T15:47:18.154Z,9
2019-03-30T15:52:20.672Z,9
2019-03-30T15:57:25.318Z,9
2019-03-30T16:02:25.887Z,10
2019-03-30T16:07:27.943Z,10
2019-03-30T16:12:30.409Z,10
2019-03-30T16:17:32.859Z,11
2019-03-30T16:22:35.478Z,10
2019-03-30T16:27:39.301Z,8
2019-03-30T16:32:40.392Z,9
2019-03-30T16:37:42.747Z,10
2019-03-30T16:42:45.301Z,9
2019-03-30T16:47:47.696Z,19
2019-03-30T16:52:50.123Z,12
2019-03-30T16:57:52.613Z,10
2019-03-30T17:02:55.638Z,11
2019-03-30T17:07:57.590Z,11
2019-03-30T17:12:59.939Z,10
2019-03-30T17:18:02.444Z,14
2019-03-30T17:23:04.852Z,14
2019-03-30T17:28:07.391Z,12
2019-03-30T17:33:10.026Z,13
2019-03-30T17:38:12.189Z,13
2019-03-30T17:43:14.667Z,12
2019-03-30T17:48:17.113Z,13
2019-03-30T17:53:19.586Z,14
2019-03-30T17:58:22.122Z,31
2019-03-30T18:03:24.490Z,26
2019-03-30T18:08:26.954Z,31
2019-03-30T18:13:29.401Z,19
2019-03-30T18:23:34.309Z,60
2019-03-30T18:28:36.875Z,40
2019-03-30T18:33:39.254Z,35
2019-03-30T18:38:41.677Z,39
2019-03-30T18:43:44.148Z,38
2019-03-30T18:48:46.686Z,30
2019-03-30T18:53:49.091Z,30
2019-03-30T18:58:51.734Z,33
2019-03-30T19:03:54.329Z,30
2019-03-30T19:08:56.503Z,20
2019-03-30T19:13:58.884Z,21
2019-03-30T19:19:01.356Z,13
2019-03-30T19:24:03.855Z,14
2019-03-30T19:29:06.406Z,24
2019-03-30T19:34:09.032Z,22
2019-03-30T19:39:11.259Z,26
2019-03-30T19:44:13.631Z,19
2019-03-30T19:49:16.167Z,24
2019-03-30T19:54:18.562Z,19
2019-03-30T19:59:21.047Z,17
2019-03-30T20:04:23.814Z,17
2019-03-30T20:09:25.965Z,52
2019-03-30T20:14:28.379Z,20
2019-03-30T20:19:30.840Z,19
2019-03-30T20:24:33.318Z,18
2019-03-30T20:29:35.855Z,16
2019-03-30T20:34:38.575Z,17
2019-03-30T20:39:40.718Z,21
2019-03-30T20:44:43.171Z,26
2019-03-30T20:49:45.720Z,22
2019-03-30T20:54:48.058Z,20
2019-03-30T20:59:50.606Z,20
2019-03-30T21:04:53.410Z,20
2019-03-30T21:14:57.926Z,28
2019-03-30T21:20:00.431Z,69
2019-03-30T21:25:03.018Z,72
2019-03-30T21:30:05.417Z,43
2019-03-30T21:35:08.130Z,31
2019-03-30T21:40:10.212Z,38
2019-03-30T21:45:12.650Z,44
2019-03-30T21:50:15.128Z,42
2019-03-30T21:55:17.566Z,46
2019-03-30T22:00:20.125Z,42
2019-03-30T22:05:22.747Z,32
2019-03-30T22:10:24.977Z,30
2019-03-30T22:15:27.534Z,28
2019-03-30T22:20:29.847Z,32
2019-03-30T22:25:32.394Z,29
2019-03-30T22:30:34.841Z,31
2019-03-30T22:35:37.624Z,28
2019-03-30T22:40:41.521Z,25
2019-03-30T22:45:42.161Z,26
2019-03-30T22:50:44.599Z,24
2019-03-30T22:55:47.039Z,22
2019-03-30T23:00:49.626Z,23
2019-03-30T23:05:52.345Z,21
2019-03-30T23:10:54.476Z,22
2019-03-30T23:15:56.989Z,20
2019-03-30T23:20:59.427Z,26
2019-03-30T23:26:01.793Z,25
2019-03-30T23:31:04.359Z,25
2019-03-30T23:36:07.152Z,22
2019-03-30T23:41:09.238Z,21
2019-03-30T23:46:11.659Z,18
2019-03-30T23:51:14.097Z,21
2019-03-30T23:56:16.589Z,20
